sensor_id;sensor_type;location;lat;lon;timestamp;temperature;humidity
24800;DHT22;12897;50.812;4.430;2022-10-16T00:00:04;15.00;99.90
24800;DHT22;12897;50.812;4.430;2022-10-16T00:02:32;14.70;99.90
24800;DHT22;12897;50.812;4.430;2022-10-16T00:05:05;14.70;99.90
24800;DHT22;12897;50.812;4.430;2022-10-16T00:07:35;14.60;99.90
24800;DHT22;12897;50.812;4.430;2022-10-16T00:10:05;14.60;99.90
24800;DHT22;12897;50.812;4.430;2022-10-16T00:12:33;14.50;99.90
24800;DHT22;12897;50.812;4.430;2022-10-16T00:15:04;14.60;99.90
24800;DHT22;12897;50.812;4.430;2022-10-16T00:17:39;14.60;99.90
24800;DHT22;12897;50.812;4.430;2022-10-16T00:20:07;14.70;99.90
24800;DHT22;12897;50.812;4.430;2022-10-16T00:22:36;14.60;99.90
24800;DHT22;12897;50.812;4.430;2022-10-16T00:25:05;14.60;99.90
24800;DHT22;12897;50.812;4.430;2022-10-16T00:27:33;14.50;99.90
24800;DHT22;12897;50.812;4.430;2022-10-16T00:30:03;14.60;99.90
24800;DHT22;12897;50.812;4.430;2022-10-16T00:32:35;14.70;99.90
24800;DHT22;12897;50.812;4.430;2022-10-16T00:35:06;14.70;99.90
24800;DHT22;12897;50.812;4.430;2022-10-16T00:37:35;14.60;99.90
24800;DHT22;12897;50.812;4.430;2022-10-16T00:40:08;14.60;99.90
24800;DHT22;12897;50.812;4.430;2022-10-16T00:42:41;14.60;99.90
24800;DHT22;12897;50.812;4.430;2022-10-16T00:45:12;14.50;99.90
24800;DHT22;12897;50.812;4.430;2022-10-16T00:47:53;14.60;99.90
24800;DHT22;12897;50.812;4.430;2022-10-16T00:50:33;14.50;99.90
24800;DHT22;12897;50.812;4.430;2022-10-16T00:53:04;14.50;99.90
24800;DHT22;12897;50.812;4.430;2022-10-16T00:55:43;14.60;99.90
24800;DHT22;12897;50.812;4.430;2022-10-16T00:58:11;14.70;99.90
24800;DHT22;12897;50.812;4.430;2022-10-16T01:00:43;14.60;99.90
24800;DHT22;12897;50.812;4.430;2022-10-16T01:03:34;14.40;99.90
24800;DHT22;12897;50.812;4.430;2022-10-16T01:06:23;14.20;99.90
24800;DHT22;12897;50.812;4.430;2022-10-16T01:09:14;14.40;99.90
24800;DHT22;12897;50.812;4.430;2022-10-16T01:14:37;14.60;99.90
24800;DHT22;12897;50.812;4.430;2022-10-16T01:17:06;14.40;99.90
24800;DHT22;12897;50.812;4.430;2022-10-16T01:19:51;14.20;99.90
24800;DHT22;12897;50.812;4.430;2022-10-16T01:22:20;14.30;99.90
24800;DHT22;12897;50.812;4.430;2022-10-16T01:24:56;14.20;99.90
24800;DHT22;12897;50.812;4.430;2022-10-16T01:27:45;14.10;99.90
24800;DHT22;12897;50.812;4.430;2022-10-16T01:30:20;14.20;99.90
24800;DHT22;12897;50.812;4.430;2022-10-16T01:35:38;14.10;99.90
24800;DHT22;12897;50.812;4.430;2022-10-16T01:38:54;14.10;99.90
24800;DHT22;12897;50.812;4.430;2022-10-16T01:41:15;14.30;99.90
24800;DHT22;12897;50.812;4.430;2022-10-16T01:43:49;14.40;99.90
24800;DHT22;12897;50.812;4.430;2022-10-16T01:46:19;14.30;99.90
24800;DHT22;12897;50.812;4.430;2022-10-16T01:48:50;14.30;99.90
24800;DHT22;12897;50.812;4.430;2022-10-16T01:51:20;14.30;99.90
24800;DHT22;12897;50.812;4.430;2022-10-16T01:53:52;14.20;99.90
24800;DHT22;12897;50.812;4.430;2022-10-16T01:56:23;14.20;99.90
24800;DHT22;12897;50.812;4.430;2022-10-16T01:58:59;14.20;99.90
24800;DHT22;12897;50.812;4.430;2022-10-16T02:01:25;14.20;99.90
24800;DHT22;12897;50.812;4.430;2022-10-16T02:04:02;14.20;99.90
24800;DHT22;12897;50.812;4.430;2022-10-16T02:06:33;14.30;99.90
24800;DHT22;12897;50.812;4.430;2022-10-16T02:09:14;14.40;99.90
24800;DHT22;12897;50.812;4.430;2022-10-16T02:11:51;14.50;99.90
24800;DHT22;12897;50.812;4.430;2022-10-16T02:14:25;14.30;99.90
24800;DHT22;12897;50.812;4.430;2022-10-16T02:17:09;14.20;99.90
24800;DHT22;12897;50.812;4.430;2022-10-16T02:19:38;14.20;99.90
24800;DHT22;12897;50.812;4.430;2022-10-16T02:22:10;14.30;99.90
24800;DHT22;12897;50.812;4.430;2022-10-16T02:27:55;14.30;99.90
24800;DHT22;12897;50.812;4.430;2022-10-16T02:30:45;14.30;99.90
24800;DHT22;12897;50.812;4.430;2022-10-16T02:33:20;14.20;99.90
24800;DHT22;12897;50.812;4.430;2022-10-16T02:35:47;14.40;99.90
24800;DHT22;12897;50.812;4.430;2022-10-16T02:38:17;14.30;99.90
24800;DHT22;12897;50.812;4.430;2022-10-16T02:40:51;14.30;99.90
24800;DHT22;12897;50.812;4.430;2022-10-16T02:43:19;14.30;99.90
24800;DHT22;12897;50.812;4.430;2022-10-16T02:45:56;14.30;99.90
24800;DHT22;12897;50.812;4.430;2022-10-16T02:48:33;14.50;99.90
24800;DHT22;12897;50.812;4.430;2022-10-16T02:51:14;14.50;99.90
24800;DHT22;12897;50.812;4.430;2022-10-16T02:53:48;14.40;99.90
24800;DHT22;12897;50.812;4.430;2022-10-16T02:56:31;14.30;99.90
24800;DHT22;12897;50.812;4.430;2022-10-16T02:59:12;14.30;99.90
24800;DHT22;12897;50.812;4.430;2022-10-16T03:01:40;14.40;99.90
24800;DHT22;12897;50.812;4.430;2022-10-16T03:04:17;14.30;99.90
24800;DHT22;12897;50.812;4.430;2022-10-16T03:07:01;14.30;99.90
24800;DHT22;12897;50.812;4.430;2022-10-16T03:09:32;14.40;99.90
24800;DHT22;12897;50.812;4.430;2022-10-16T03:12:09;14.40;99.90
24800;DHT22;12897;50.812;4.430;2022-10-16T03:14:50;14.30;99.90
24800;DHT22;12897;50.812;4.430;2022-10-16T03:17:25;14.30;99.90
24800;DHT22;12897;50.812;4.430;2022-10-16T03:20:00;14.40;99.90
24800;DHT22;12897;50.812;4.430;2022-10-16T03:22:36;14.50;99.90
24800;DHT22;12897;50.812;4.430;2022-10-16T03:25:29;14.60;99.90
24800;DHT22;12897;50.812;4.430;2022-10-16T03:28:03;14.50;99.90
24800;DHT22;12897;50.812;4.430;2022-10-16T03:30:33;14.40;99.90
24800;DHT22;12897;50.812;4.430;2022-10-16T03:33:09;14.50;99.90
24800;DHT22;12897;50.812;4.430;2022-10-16T03:35:51;14.50;99.90
24800;DHT22;12897;50.812;4.430;2022-10-16T03:38:30;14.40;99.90
24800;DHT22;12897;50.812;4.430;2022-10-16T03:41:01;14.30;99.90
24800;DHT22;12897;50.812;4.430;2022-10-16T03:46:21;14.40;99.90
24800;DHT22;12897;50.812;4.430;2022-10-16T03:48:55;14.50;99.90
24800;DHT22;12897;50.812;4.430;2022-10-16T03:51:29;14.30;99.90
24800;DHT22;12897;50.812;4.430;2022-10-16T03:54:10;14.40;99.90
24800;DHT22;12897;50.812;4.430;2022-10-16T03:56:49;14.40;99.90
24800;DHT22;12897;50.812;4.430;2022-10-16T03:59:22;14.40;99.90
24800;DHT22;12897;50.812;4.430;2022-10-16T04:01:59;14.50;99.90
24800;DHT22;12897;50.812;4.430;2022-10-16T04:04:37;14.50;99.90
24800;DHT22;12897;50.812;4.430;2022-10-16T04:07:26;14.30;99.90
24800;DHT22;12897;50.812;4.430;2022-10-16T04:09:40;14.30;99.90
24800;DHT22;12897;50.812;4.430;2022-10-16T04:12:18;14.40;99.90
24800;DHT22;12897;50.812;4.430;2022-10-16T04:14:47;14.40;99.90
24800;DHT22;12897;50.812;4.430;2022-10-16T04:17:17;14.20;99.90
24800;DHT22;12897;50.812;4.430;2022-10-16T04:19:48;14.30;99.90
24800;DHT22;12897;50.812;4.430;2022-10-16T04:22:16;14.30;99.90
24800;DHT22;12897;50.812;4.430;2022-10-16T04:24:45;14.20;99.90
24800;DHT22;12897;50.812;4.430;2022-10-16T04:27:17;14.20;99.90
24800;DHT22;12897;50.812;4.430;2022-10-16T04:29:45;14.30;99.90
24800;DHT22;12897;50.812;4.430;2022-10-16T04:32:14;14.30;99.90
24800;DHT22;12897;50.812;4.430;2022-10-16T04:34:43;14.40;99.90
24800;DHT22;12897;50.812;4.430;2022-10-16T04:37:15;14.30;99.90
24800;DHT22;12897;50.812;4.430;2022-10-16T04:39:43;14.30;99.90
24800;DHT22;12897;50.812;4.430;2022-10-16T04:42:11;14.50;99.90
24800;DHT22;12897;50.812;4.430;2022-10-16T04:44:39;14.30;99.90
24800;DHT22;12897;50.812;4.430;2022-10-16T04:47:06;14.20;99.90
24800;DHT22;12897;50.812;4.430;2022-10-16T04:49:36;14.30;99.90
24800;DHT22;12897;50.812;4.430;2022-10-16T04:52:05;14.20;99.90
24800;DHT22;12897;50.812;4.430;2022-10-16T04:54:34;14.10;99.90
24800;DHT22;12897;50.812;4.430;2022-10-16T04:57:08;14.10;99.90
24800;DHT22;12897;50.812;4.430;2022-10-16T04:59:45;14.00;99.90
24800;DHT22;12897;50.812;4.430;2022-10-16T05:02:28;14.00;99.90
24800;DHT22;12897;50.812;4.430;2022-10-16T05:05:04;14.20;99.90
24800;DHT22;12897;50.812;4.430;2022-10-16T05:07:41;14.20;99.90
24800;DHT22;12897;50.812;4.430;2022-10-16T05:10:19;14.20;99.90
24800;DHT22;12897;50.812;4.430;2022-10-16T05:12:51;14.10;99.90
24800;DHT22;12897;50.812;4.430;2022-10-16T05:21:35;14.00;99.90
24800;DHT22;12897;50.812;4.430;2022-10-16T05:24:06;13.90;99.90
24800;DHT22;12897;50.812;4.430;2022-10-16T05:26:35;14.10;99.90
24800;DHT22;12897;50.812;4.430;2022-10-16T05:29:03;14.30;99.90
24800;DHT22;12897;50.812;4.430;2022-10-16T05:31:41;14.30;99.90
24800;DHT22;12897;50.812;4.430;2022-10-16T05:34:10;14.30;99.90
24800;DHT22;12897;50.812;4.430;2022-10-16T05:36:42;14.10;99.90
24800;DHT22;12897;50.812;4.430;2022-10-16T05:39:08;14.30;99.90
24800;DHT22;12897;50.812;4.430;2022-10-16T05:41:39;14.30;99.90
24800;DHT22;12897;50.812;4.430;2022-10-16T05:44:07;14.50;99.90
24800;DHT22;12897;50.812;4.430;2022-10-16T05:46:34;14.50;99.90
24800;DHT22;12897;50.812;4.430;2022-10-16T05:49:03;14.20;99.90
24800;DHT22;12897;50.812;4.430;2022-10-16T05:51:39;14.10;99.90
24800;DHT22;12897;50.812;4.430;2022-10-16T05:54:09;14.10;99.90
24800;DHT22;12897;50.812;4.430;2022-10-16T05:56:38;14.10;99.90
24800;DHT22;12897;50.812;4.430;2022-10-16T05:59:06;14.00;99.90
24800;DHT22;12897;50.812;4.430;2022-10-16T06:01:39;14.00;99.90
24800;DHT22;12897;50.812;4.430;2022-10-16T06:04:09;14.00;99.90
24800;DHT22;12897;50.812;4.430;2022-10-16T06:06:36;13.80;99.90
24800;DHT22;12897;50.812;4.430;2022-10-16T06:09:04;13.80;99.90
24800;DHT22;12897;50.812;4.430;2022-10-16T06:11:34;13.80;99.90
24800;DHT22;12897;50.812;4.430;2022-10-16T06:14:03;14.00;99.90
24800;DHT22;12897;50.812;4.430;2022-10-16T06:16:34;13.90;99.90
24800;DHT22;12897;50.812;4.430;2022-10-16T06:19:08;13.70;99.90
24800;DHT22;12897;50.812;4.430;2022-10-16T06:21:37;13.90;99.90
24800;DHT22;12897;50.812;4.430;2022-10-16T06:24:23;13.70;99.90
24800;DHT22;12897;50.812;4.430;2022-10-16T06:26:44;13.70;99.90
24800;DHT22;12897;50.812;4.430;2022-10-16T06:29:15;13.70;99.90
24800;DHT22;12897;50.812;4.430;2022-10-16T06:31:40;13.70;99.90
24800;DHT22;12897;50.812;4.430;2022-10-16T06:34:13;13.60;99.90
24800;DHT22;12897;50.812;4.430;2022-10-16T06:36:49;13.70;99.90
24800;DHT22;12897;50.812;4.430;2022-10-16T06:39:28;13.90;99.90
24800;DHT22;12897;50.812;4.430;2022-10-16T06:42:08;13.90;99.90
24800;DHT22;12897;50.812;4.430;2022-10-16T06:44:41;14.00;99.90
24800;DHT22;12897;50.812;4.430;2022-10-16T06:47:09;14.00;99.90
24800;DHT22;12897;50.812;4.430;2022-10-16T06:49:38;14.00;99.90
24800;DHT22;12897;50.812;4.430;2022-10-16T06:52:10;14.20;99.90
24800;DHT22;12897;50.812;4.430;2022-10-16T06:54:40;14.30;99.90
24800;DHT22;12897;50.812;4.430;2022-10-16T06:57:07;14.50;99.90
24800;DHT22;12897;50.812;4.430;2022-10-16T06:59:35;14.60;99.90
24800;DHT22;12897;50.812;4.430;2022-10-16T07:02:07;14.60;99.90
24800;DHT22;12897;50.812;4.430;2022-10-16T07:04:38;14.70;99.90
24800;DHT22;12897;50.812;4.430;2022-10-16T07:07:10;14.60;99.90
24800;DHT22;12897;50.812;4.430;2022-10-16T07:09:39;14.70;99.90
24800;DHT22;12897;50.812;4.430;2022-10-16T07:12:10;14.60;99.90
24800;DHT22;12897;50.812;4.430;2022-10-16T07:14:40;14.60;99.90
24800;DHT22;12897;50.812;4.430;2022-10-16T07:17:16;14.70;99.90
24800;DHT22;12897;50.812;4.430;2022-10-16T07:19:45;14.80;99.90
24800;DHT22;12897;50.812;4.430;2022-10-16T07:22:12;14.80;99.90
24800;DHT22;12897;50.812;4.430;2022-10-16T07:24:41;14.80;99.90
24800;DHT22;12897;50.812;4.430;2022-10-16T07:27:13;14.80;99.90
24800;DHT22;12897;50.812;4.430;2022-10-16T07:29:46;14.90;99.90
24800;DHT22;12897;50.812;4.430;2022-10-16T07:32:15;14.80;99.90
24800;DHT22;12897;50.812;4.430;2022-10-16T07:34:44;14.70;99.90
24800;DHT22;12897;50.812;4.430;2022-10-16T07:37:13;14.70;99.90
24800;DHT22;12897;50.812;4.430;2022-10-16T07:39:50;14.70;99.90
24800;DHT22;12897;50.812;4.430;2022-10-16T07:42:19;14.80;99.90
24800;DHT22;12897;50.812;4.430;2022-10-16T07:44:44;14.80;99.90
24800;DHT22;12897;50.812;4.430;2022-10-16T07:47:12;14.80;99.90
24800;DHT22;12897;50.812;4.430;2022-10-16T07:49:48;14.80;99.90
24800;DHT22;12897;50.812;4.430;2022-10-16T07:52:15;14.80;99.90
24800;DHT22;12897;50.812;4.430;2022-10-16T07:54:47;14.80;99.90
24800;DHT22;12897;50.812;4.430;2022-10-16T07:57:14;15.00;99.90
24800;DHT22;12897;50.812;4.430;2022-10-16T07:59:52;15.10;99.90
24800;DHT22;12897;50.812;4.430;2022-10-16T08:02:22;15.10;99.90
24800;DHT22;12897;50.812;4.430;2022-10-16T08:04:54;15.20;99.90
24800;DHT22;12897;50.812;4.430;2022-10-16T08:07:21;15.20;99.90
24800;DHT22;12897;50.812;4.430;2022-10-16T08:09:52;15.30;99.90
24800;DHT22;12897;50.812;4.430;2022-10-16T08:12:21;15.30;99.90
24800;DHT22;12897;50.812;4.430;2022-10-16T08:14:50;15.30;99.90
24800;DHT22;12897;50.812;4.430;2022-10-16T08:17:17;15.30;99.90
24800;DHT22;12897;50.812;4.430;2022-10-16T08:20:03;15.30;99.90
24800;DHT22;12897;50.812;4.430;2022-10-16T08:22:32;15.30;99.90
24800;DHT22;12897;50.812;4.430;2022-10-16T08:25:02;15.30;99.90
24800;DHT22;12897;50.812;4.430;2022-10-16T08:27:34;15.50;99.90
24800;DHT22;12897;50.812;4.430;2022-10-16T08:30:05;15.60;99.90
24800;DHT22;12897;50.812;4.430;2022-10-16T08:32:38;15.60;99.90
24800;DHT22;12897;50.812;4.430;2022-10-16T08:35:14;15.70;99.90
24800;DHT22;12897;50.812;4.430;2022-10-16T08:40:42;15.70;99.90
24800;DHT22;12897;50.812;4.430;2022-10-16T08:43:41;15.60;99.90
24800;DHT22;12897;50.812;4.430;2022-10-16T08:48:53;15.70;99.90
24800;DHT22;12897;50.812;4.430;2022-10-16T08:51:26;15.70;99.90
24800;DHT22;12897;50.812;4.430;2022-10-16T08:54:06;15.80;99.90
24800;DHT22;12897;50.812;4.430;2022-10-16T08:56:36;15.70;99.90
24800;DHT22;12897;50.812;4.430;2022-10-16T08:59:06;15.80;99.90
24800;DHT22;12897;50.812;4.430;2022-10-16T09:01:44;15.80;99.90
24800;DHT22;12897;50.812;4.430;2022-10-16T09:07:09;15.90;99.90
24800;DHT22;12897;50.812;4.430;2022-10-16T09:12:31;16.00;99.90
24800;DHT22;12897;50.812;4.430;2022-10-16T09:18:30;16.30;99.90
24800;DHT22;12897;50.812;4.430;2022-10-16T09:21:09;16.30;99.90
24800;DHT22;12897;50.812;4.430;2022-10-16T09:23:41;16.30;99.90
24800;DHT22;12897;50.812;4.430;2022-10-16T09:26:16;16.60;99.90
24800;DHT22;12897;50.812;4.430;2022-10-16T09:28:46;16.60;99.90
24800;DHT22;12897;50.812;4.430;2022-10-16T09:31:18;16.50;99.90
24800;DHT22;12897;50.812;4.430;2022-10-16T09:33:53;16.40;99.90
24800;DHT22;12897;50.812;4.430;2022-10-16T09:36:23;16.50;99.90
24800;DHT22;12897;50.812;4.430;2022-10-16T09:39:06;16.50;99.90
24800;DHT22;12897;50.812;4.430;2022-10-16T09:41:38;16.60;99.90
24800;DHT22;12897;50.812;4.430;2022-10-16T09:47:22;16.70;99.90
24800;DHT22;12897;50.812;4.430;2022-10-16T09:49:55;16.80;99.90
24800;DHT22;12897;50.812;4.430;2022-10-16T09:52:39;16.90;99.90
24800;DHT22;12897;50.812;4.430;2022-10-16T09:55:17;16.90;99.90
24800;DHT22;12897;50.812;4.430;2022-10-16T09:57:55;17.00;99.90
24800;DHT22;12897;50.812;4.430;2022-10-16T10:00:29;17.20;99.90
24800;DHT22;12897;50.812;4.430;2022-10-16T10:02:59;17.10;99.90
24800;DHT22;12897;50.812;4.430;2022-10-16T10:05:33;17.20;99.90
24800;DHT22;12897;50.812;4.430;2022-10-16T10:08:12;17.20;99.90
24800;DHT22;12897;50.812;4.430;2022-10-16T10:10:39;17.30;99.90
24800;DHT22;12897;50.812;4.430;2022-10-16T10:13:25;17.30;99.90
24800;DHT22;12897;50.812;4.430;2022-10-16T10:15:55;17.40;99.90
24800;DHT22;12897;50.812;4.430;2022-10-16T10:18:27;17.60;99.90
24800;DHT22;12897;50.812;4.430;2022-10-16T10:21:02;17.90;99.90
24800;DHT22;12897;50.812;4.430;2022-10-16T10:23:36;18.10;99.90
24800;DHT22;12897;50.812;4.430;2022-10-16T10:26:11;18.30;99.90
24800;DHT22;12897;50.812;4.430;2022-10-16T10:29:14;18.60;99.90
24800;DHT22;12897;50.812;4.430;2022-10-16T10:32:10;18.80;99.90
24800;DHT22;12897;50.812;4.430;2022-10-16T10:41:02;17.90;99.90
24800;DHT22;12897;50.812;4.430;2022-10-16T10:49:22;17.50;99.90
24800;DHT22;12897;50.812;4.430;2022-10-16T11:01:23;17.80;99.90
24800;DHT22;12897;50.812;4.430;2022-10-16T11:11:25;18.00;99.90
24800;DHT22;12897;50.812;4.430;2022-10-16T11:14:04;18.10;99.90
24800;DHT22;12897;50.812;4.430;2022-10-16T11:16:37;18.20;99.90
24800;DHT22;12897;50.812;4.430;2022-10-16T11:22:17;18.40;99.90
24800;DHT22;12897;50.812;4.430;2022-10-16T11:25:18;18.50;99.90
24800;DHT22;12897;50.812;4.430;2022-10-16T11:27:38;18.70;99.90
24800;DHT22;12897;50.812;4.430;2022-10-16T11:30:14;18.90;99.90
24800;DHT22;12897;50.812;4.430;2022-10-16T11:32:50;19.10;99.90
24800;DHT22;12897;50.812;4.430;2022-10-16T11:35:40;19.00;99.90
24800;DHT22;12897;50.812;4.430;2022-10-16T11:38:15;18.80;99.90
24800;DHT22;12897;50.812;4.430;2022-10-16T11:40:45;18.90;99.90
24800;DHT22;12897;50.812;4.430;2022-10-16T11:43:21;19.00;99.90
24800;DHT22;12897;50.812;4.430;2022-10-16T11:45:52;19.00;99.90
24800;DHT22;12897;50.812;4.430;2022-10-16T11:48:52;19.00;99.90
24800;DHT22;12897;50.812;4.430;2022-10-16T11:51:29;18.90;99.90
24800;DHT22;12897;50.812;4.430;2022-10-16T11:54:00;18.80;99.90
24800;DHT22;12897;50.812;4.430;2022-10-16T11:56:29;18.70;99.90
24800;DHT22;12897;50.812;4.430;2022-10-16T11:59:10;18.70;99.90
24800;DHT22;12897;50.812;4.430;2022-10-16T12:01:53;18.70;99.90
24800;DHT22;12897;50.812;4.430;2022-10-16T12:04:38;18.90;99.90
24800;DHT22;12897;50.812;4.430;2022-10-16T12:07:08;19.20;99.90
24800;DHT22;12897;50.812;4.430;2022-10-16T12:09:42;19.40;99.90
24800;DHT22;12897;50.812;4.430;2022-10-16T12:12:38;19.50;99.90
24800;DHT22;12897;50.812;4.430;2022-10-16T12:17:54;19.60;99.90
24800;DHT22;12897;50.812;4.430;2022-10-16T12:20:33;19.50;99.90
24800;DHT22;12897;50.812;4.430;2022-10-16T12:23:04;19.60;99.90
24800;DHT22;12897;50.812;4.430;2022-10-16T12:25:34;19.60;99.90
24800;DHT22;12897;50.812;4.430;2022-10-16T12:28:28;19.40;99.90
24800;DHT22;12897;50.812;4.430;2022-10-16T12:31:01;19.50;99.90
24800;DHT22;12897;50.812;4.430;2022-10-16T12:33:53;19.70;99.90
24800;DHT22;12897;50.812;4.430;2022-10-16T12:36:26;19.80;99.90
24800;DHT22;12897;50.812;4.430;2022-10-16T12:38:52;20.10;99.90
24800;DHT22;12897;50.812;4.430;2022-10-16T12:41:36;20.50;99.90
24800;DHT22;12897;50.812;4.430;2022-10-16T12:44:20;20.60;99.90
24800;DHT22;12897;50.812;4.430;2022-10-16T12:46:39;20.60;99.90
24800;DHT22;12897;50.812;4.430;2022-10-16T12:54:22;20.40;99.90
24800;DHT22;12897;50.812;4.430;2022-10-16T12:59:53;20.40;99.90
24800;DHT22;12897;50.812;4.430;2022-10-16T13:05:29;20.80;99.90
24800;DHT22;12897;50.812;4.430;2022-10-16T13:08:23;20.60;99.90
24800;DHT22;12897;50.812;4.430;2022-10-16T13:16:49;20.70;99.90
24800;DHT22;12897;50.812;4.430;2022-10-16T13:28:02;20.90;99.90
24800;DHT22;12897;50.812;4.430;2022-10-16T13:30:51;20.90;99.90
24800;DHT22;12897;50.812;4.430;2022-10-16T13:35:56;20.50;99.90
24800;DHT22;12897;50.812;4.430;2022-10-16T13:38:26;20.70;99.90
24800;DHT22;12897;50.812;4.430;2022-10-16T13:40:57;20.80;99.90
24800;DHT22;12897;50.812;4.430;2022-10-16T13:43:38;21.00;99.90
24800;DHT22;12897;50.812;4.430;2022-10-16T13:46:21;21.00;99.90
24800;DHT22;12897;50.812;4.430;2022-10-16T13:49:05;20.70;99.90
24800;DHT22;12897;50.812;4.430;2022-10-16T13:51:39;20.60;99.90
24800;DHT22;12897;50.812;4.430;2022-10-16T13:54:07;20.40;99.90
24800;DHT22;12897;50.812;4.430;2022-10-16T13:56:41;20.30;99.90
24800;DHT22;12897;50.812;4.430;2022-10-16T13:59:21;20.20;99.90
24800;DHT22;12897;50.812;4.430;2022-10-16T14:04:12;20.30;99.90
24800;DHT22;12897;50.812;4.430;2022-10-16T14:06:45;20.40;99.90
24800;DHT22;12897;50.812;4.430;2022-10-16T14:09:28;20.40;99.90
24800;DHT22;12897;50.812;4.430;2022-10-16T14:11:56;20.50;99.90
24800;DHT22;12897;50.812;4.430;2022-10-16T14:14:26;20.60;99.90
24800;DHT22;12897;50.812;4.430;2022-10-16T14:16:57;20.60;99.90
24800;DHT22;12897;50.812;4.430;2022-10-16T14:19:25;20.60;99.90
24800;DHT22;12897;50.812;4.430;2022-10-16T14:21:57;20.70;99.90
24800;DHT22;12897;50.812;4.430;2022-10-16T14:24:33;20.70;99.90
24800;DHT22;12897;50.812;4.430;2022-10-16T14:27:01;20.60;99.90
24800;DHT22;12897;50.812;4.430;2022-10-16T14:29:31;20.70;99.90
24800;DHT22;12897;50.812;4.430;2022-10-16T14:32:06;20.70;99.90
24800;DHT22;12897;50.812;4.430;2022-10-16T14:37:31;20.60;99.90
24800;DHT22;12897;50.812;4.430;2022-10-16T14:40:03;20.90;99.90
24800;DHT22;12897;50.812;4.430;2022-10-16T14:42:29;20.80;99.90
24800;DHT22;12897;50.812;4.430;2022-10-16T14:44:57;20.70;99.90
24800;DHT22;12897;50.812;4.430;2022-10-16T14:47:26;20.60;99.90
24800;DHT22;12897;50.812;4.430;2022-10-16T14:49:54;20.50;99.90
24800;DHT22;12897;50.812;4.430;2022-10-16T14:52:24;20.50;99.90
24800;DHT22;12897;50.812;4.430;2022-10-16T14:54:51;20.40;99.90
24800;DHT22;12897;50.812;4.430;2022-10-16T14:57:26;20.40;99.90
24800;DHT22;12897;50.812;4.430;2022-10-16T14:59:53;20.30;99.90
24800;DHT22;12897;50.812;4.430;2022-10-16T15:02:32;20.30;99.90
24800;DHT22;12897;50.812;4.430;2022-10-16T15:04:58;20.30;99.90
24800;DHT22;12897;50.812;4.430;2022-10-16T15:07:27;20.30;99.90
24800;DHT22;12897;50.812;4.430;2022-10-16T15:09:56;20.40;99.90
24800;DHT22;12897;50.812;4.430;2022-10-16T15:12:24;20.50;99.90
24800;DHT22;12897;50.812;4.430;2022-10-16T15:14:52;20.50;99.90
24800;DHT22;12897;50.812;4.430;2022-10-16T15:17:20;20.30;99.90
24800;DHT22;12897;50.812;4.430;2022-10-16T15:19:49;20.40;99.90
24800;DHT22;12897;50.812;4.430;2022-10-16T15:22:18;20.40;99.90
24800;DHT22;12897;50.812;4.430;2022-10-16T15:24:48;20.20;99.90
24800;DHT22;12897;50.812;4.430;2022-10-16T15:27:18;20.30;99.90
24800;DHT22;12897;50.812;4.430;2022-10-16T15:29:44;20.20;99.90
24800;DHT22;12897;50.812;4.430;2022-10-16T15:32:13;20.10;99.90
24800;DHT22;12897;50.812;4.430;2022-10-16T15:34:41;20.00;99.90
24800;DHT22;12897;50.812;4.430;2022-10-16T15:37:09;19.80;99.90
24800;DHT22;12897;50.812;4.430;2022-10-16T15:39:39;19.70;99.90
24800;DHT22;12897;50.812;4.430;2022-10-16T15:42:07;19.50;99.90
24800;DHT22;12897;50.812;4.430;2022-10-16T15:44:37;19.50;99.90
24800;DHT22;12897;50.812;4.430;2022-10-16T15:47:05;19.30;99.90
24800;DHT22;12897;50.812;4.430;2022-10-16T15:49:34;19.50;99.90
24800;DHT22;12897;50.812;4.430;2022-10-16T15:52:03;19.50;99.90
24800;DHT22;12897;50.812;4.430;2022-10-16T15:54:32;19.40;99.90
24800;DHT22;12897;50.812;4.430;2022-10-16T15:57:02;19.40;99.90
24800;DHT22;12897;50.812;4.430;2022-10-16T15:59:30;19.30;99.90
24800;DHT22;12897;50.812;4.430;2022-10-16T16:01:59;19.20;99.90
24800;DHT22;12897;50.812;4.430;2022-10-16T16:04:29;19.30;99.90
24800;DHT22;12897;50.812;4.430;2022-10-16T16:06:59;19.20;99.90
24800;DHT22;12897;50.812;4.430;2022-10-16T16:09:31;19.00;99.90
24800;DHT22;12897;50.812;4.430;2022-10-16T16:12:16;18.80;99.90
24800;DHT22;12897;50.812;4.430;2022-10-16T16:14:49;18.70;99.90
24800;DHT22;12897;50.812;4.430;2022-10-16T16:17:18;18.70;99.90
24800;DHT22;12897;50.812;4.430;2022-10-16T16:19:54;18.50;99.90
24800;DHT22;12897;50.812;4.430;2022-10-16T16:22:24;18.50;99.90
24800;DHT22;12897;50.812;4.430;2022-10-16T16:24:53;18.30;99.90
24800;DHT22;12897;50.812;4.430;2022-10-16T16:27:34;18.40;99.90
24800;DHT22;12897;50.812;4.430;2022-10-16T16:30:04;18.50;99.90
24800;DHT22;12897;50.812;4.430;2022-10-16T16:32:35;18.60;99.90
24800;DHT22;12897;50.812;4.430;2022-10-16T16:35:24;18.70;99.90
24800;DHT22;12897;50.812;4.430;2022-10-16T16:37:59;18.70;99.90
24800;DHT22;12897;50.812;4.430;2022-10-16T16:40:28;18.70;99.90
24800;DHT22;12897;50.812;4.430;2022-10-16T16:42:59;18.60;99.90
24800;DHT22;12897;50.812;4.430;2022-10-16T16:45:30;18.60;99.90
24800;DHT22;12897;50.812;4.430;2022-10-16T16:48:03;18.40;99.90
24800;DHT22;12897;50.812;4.430;2022-10-16T16:50:47;18.30;99.90
24800;DHT22;12897;50.812;4.430;2022-10-16T16:53:14;18.20;99.90
24800;DHT22;12897;50.812;4.430;2022-10-16T16:55:50;18.10;99.90
24800;DHT22;12897;50.812;4.430;2022-10-16T16:58:22;18.10;99.90
24800;DHT22;12897;50.812;4.430;2022-10-16T17:00:58;18.00;99.90
24800;DHT22;12897;50.812;4.430;2022-10-16T17:03:29;18.00;99.90
24800;DHT22;12897;50.812;4.430;2022-10-16T17:06:07;17.90;99.90
24800;DHT22;12897;50.812;4.430;2022-10-16T17:08:36;18.10;99.90
24800;DHT22;12897;50.812;4.430;2022-10-16T17:11:25;18.20;99.90
24800;DHT22;12897;50.812;4.430;2022-10-16T17:13:50;18.20;99.90
24800;DHT22;12897;50.812;4.430;2022-10-16T17:16:19;18.20;99.90
24800;DHT22;12897;50.812;4.430;2022-10-16T17:18:51;18.20;99.90
24800;DHT22;12897;50.812;4.430;2022-10-16T17:21:23;18.30;99.90
24800;DHT22;12897;50.812;4.430;2022-10-16T17:24:07;18.10;99.90
24800;DHT22;12897;50.812;4.430;2022-10-16T17:26:28;18.00;99.90
24800;DHT22;12897;50.812;4.430;2022-10-16T17:29:03;18.00;99.90
24800;DHT22;12897;50.812;4.430;2022-10-16T17:31:37;18.10;99.90
24800;DHT22;12897;50.812;4.430;2022-10-16T17:34:10;17.90;99.90
24800;DHT22;12897;50.812;4.430;2022-10-16T17:36:39;17.80;99.90
24800;DHT22;12897;50.812;4.430;2022-10-16T17:39:16;17.60;99.90
24800;DHT22;12897;50.812;4.430;2022-10-16T17:42:02;17.50;99.90
24800;DHT22;12897;50.812;4.430;2022-10-16T17:44:36;17.40;99.90
24800;DHT22;12897;50.812;4.430;2022-10-16T17:47:08;17.50;99.90
24800;DHT22;12897;50.812;4.430;2022-10-16T17:49:38;17.40;99.90
24800;DHT22;12897;50.812;4.430;2022-10-16T17:52:08;17.20;99.90